Terminal Aerodrome Forecast
Issued by NWS Louisville, KY

Home | Current Version | Previous Version | Text Only | Print | Product List | Glossary On
Versions: 1 2 3 4 5 6 7 8 9 10 11 12 13
000
FTUS43 KLMK 210500
TAFLEX
TAF
KLEX 210524Z 2106/2206 19008KT P6SM SCT250
     FM210700 21008KT P6SM SCT250 WS012/25030KT
     FM211200 22010KT P6SM VCSH BKN040
     FM211600 27012G18KT P6SM BKN040
     FM220100 30007KT P6SM SCT250=

USA.gov is the U.S. government's official web portal to all federal, state and local government web resources and services.